createdAt,value
2022-09-28T00:00:40.967Z,9.67
2022-09-28T00:03:09.032Z,9.65
2022-09-28T00:05:35.592Z,9.63
2022-09-28T00:08:02.010Z,9.57
2022-09-28T00:10:28.540Z,9.59
2022-09-28T00:12:55.005Z,9.58
2022-09-28T00:15:22.374Z,9.57
2022-09-28T00:17:48.779Z,9.55
2022-09-28T00:20:15.360Z,9.52
2022-09-28T00:22:41.802Z,9.51
2022-09-28T00:25:08.817Z,9.49
2022-09-28T00:27:35.393Z,9.45
2022-09-28T00:30:01.904Z,9.45
2022-09-28T00:32:28.713Z,9.42
2022-09-28T00:34:55.154Z,9.42
2022-09-28T00:37:21.605Z,9.40
2022-09-28T00:39:48.715Z,9.36
2022-09-28T00:42:21.078Z,9.23
2022-09-28T00:44:52.042Z,9.31
2022-09-28T00:47:37.637Z,9.30
2022-09-28T00:50:20.285Z,9.29
2022-09-28T00:53:14.491Z,9.25
2022-09-28T00:56:14.120Z,9.25
2022-09-28T00:58:45.360Z,9.13
2022-09-28T01:01:12.412Z,9.22
2022-09-28T01:03:39.907Z,9.20
2022-09-28T01:06:08.091Z,9.20
2022-09-28T01:08:35.970Z,9.19
2022-09-28T01:11:02.505Z,9.15
2022-09-28T01:13:31.863Z,9.03
2022-09-28T01:16:07.297Z,9.15
2022-09-28T01:19:15.800Z,9.13
2022-09-28T01:22:04.103Z,9.11
2022-09-28T01:24:40.321Z,9.11
2022-09-28T01:27:12.824Z,9.00
2022-09-28T01:29:42.149Z,9.05
2022-09-28T01:32:26.377Z,9.03
2022-09-28T01:34:59.397Z,8.97
2022-09-28T01:37:39.271Z,8.96
2022-09-28T01:40:09.298Z,8.93
2022-09-28T01:42:39.484Z,8.83
2022-09-28T01:45:14.250Z,8.95
2022-09-28T01:47:41.635Z,8.94
2022-09-28T01:50:14.389Z,8.90
2022-09-28T01:52:51.629Z,8.88
2022-09-28T01:55:50.180Z,8.88
2022-09-28T01:58:28.353Z,8.77
2022-09-28T02:01:06.201Z,8.74
2022-09-28T02:03:39.916Z,8.72
2022-09-28T02:06:16.237Z,8.81
2022-09-28T02:08:50.538Z,8.65
2022-09-28T02:11:20.149Z,8.77
2022-09-28T02:14:00.962Z,8.73
2022-09-28T02:17:03.943Z,8.60
2022-09-28T02:19:32.724Z,8.71
2022-09-28T02:22:08.367Z,8.62
2022-09-28T02:24:42.624Z,8.68
2022-09-28T02:27:23.941Z,8.69
2022-09-28T02:29:50.502Z,8.67
2022-09-28T02:32:19.434Z,8.63
2022-09-28T02:34:46.329Z,8.61
2022-09-28T02:37:12.829Z,8.59
2022-09-28T02:39:39.304Z,8.57
2022-09-28T02:42:05.834Z,8.56
2022-09-28T02:44:54.124Z,8.53
2022-09-28T02:47:38.888Z,8.51
2022-09-28T02:50:51.196Z,8.48
2022-09-28T02:53:37.800Z,8.45
2022-09-28T02:56:29.993Z,8.28
2022-09-28T02:59:20.790Z,8.30
2022-09-28T03:01:50.241Z,8.30
2022-09-28T03:04:28.645Z,8.14
2022-09-28T03:07:01.688Z,8.23
2022-09-28T03:09:39.771Z,8.21
2022-09-28T03:12:16.281Z,8.09
2022-09-28T03:14:43.326Z,8.13
2022-09-28T03:17:11.134Z,8.13
2022-09-28T03:19:37.986Z,8.11
2022-09-28T03:22:04.469Z,8.08
2022-09-28T03:24:31.127Z,8.02
2022-09-28T03:26:57.558Z,7.98
2022-09-28T03:29:24.124Z,7.88
2022-09-28T03:31:57.331Z,7.95
2022-09-28T03:34:23.784Z,7.92
2022-09-28T03:36:51.131Z,7.89
2022-09-28T03:39:17.740Z,7.88
2022-09-28T03:41:44.227Z,7.85
2022-09-28T03:44:10.767Z,7.84
2022-09-28T03:46:38.324Z,7.84
2022-09-28T03:49:09.819Z,7.83
2022-09-28T03:51:36.400Z,7.81
2022-09-28T03:54:02.892Z,7.80
2022-09-28T03:56:29.687Z,7.78
2022-09-28T03:58:56.132Z,7.77
2022-09-28T04:01:22.625Z,7.77
2022-09-28T04:03:54.031Z,7.68
2022-09-28T04:06:20.836Z,7.77
2022-09-28T04:08:47.289Z,7.77
2022-09-28T04:11:13.842Z,7.77
2022-09-28T04:13:40.420Z,7.76
2022-09-28T04:16:10.802Z,7.73
2022-09-28T04:18:37.933Z,7.72
2022-09-28T04:21:07.000Z,7.71
2022-09-28T04:23:39.816Z,7.70
2022-09-28T04:26:08.891Z,7.57
2022-09-28T04:28:35.358Z,7.66
2022-09-28T04:31:01.871Z,7.68
2022-09-28T04:33:28.394Z,7.69
2022-09-28T04:35:54.930Z,7.67
2022-09-28T04:38:41.470Z,7.63
2022-09-28T04:41:08.539Z,7.62
2022-09-28T04:43:35.128Z,7.60
2022-09-28T04:46:02.588Z,7.57
2022-09-28T04:48:37.486Z,7.42
2022-09-28T04:51:34.757Z,7.51
2022-09-28T04:54:01.280Z,7.51
2022-09-28T04:56:27.829Z,7.50
2022-09-28T04:58:54.372Z,7.48
2022-09-28T05:01:22.194Z,7.47
2022-09-28T05:04:12.059Z,7.46
2022-09-28T05:06:57.015Z,7.46
2022-09-28T05:09:24.184Z,7.45
2022-09-28T05:11:52.049Z,7.43
2022-09-28T05:14:21.172Z,7.42
2022-09-28T05:16:48.757Z,7.40
2022-09-28T05:19:21.473Z,7.38
2022-09-28T05:21:50.745Z,7.36
2022-09-28T05:24:17.174Z,7.33
2022-09-28T05:26:49.343Z,7.32
2022-09-28T05:29:16.135Z,7.30
2022-09-28T05:31:48.406Z,7.27
2022-09-28T05:34:37.978Z,7.29
2022-09-28T05:37:04.716Z,7.26
2022-09-28T05:39:31.176Z,7.23
2022-09-28T05:41:57.663Z,7.23
2022-09-28T05:44:24.108Z,7.23
2022-09-28T05:46:53.328Z,7.09
2022-09-28T05:49:19.844Z,7.19
2022-09-28T05:51:47.210Z,7.19
2022-09-28T05:54:13.784Z,7.18
2022-09-28T05:56:44.484Z,7.14
2022-09-28T05:59:11.085Z,7.13
2022-09-28T06:01:37.962Z,7.10
2022-09-28T06:04:07.836Z,7.10
2022-09-28T06:06:35.235Z,7.09
2022-09-28T06:09:01.724Z,7.09
2022-09-28T06:11:31.964Z,7.07
2022-09-28T06:14:02.675Z,7.07
2022-09-28T06:16:31.027Z,7.06
2022-09-28T06:18:57.879Z,7.08
2022-09-28T06:21:48.765Z,7.07
2022-09-28T06:24:15.456Z,7.07
2022-09-28T06:26:41.937Z,7.07
2022-09-28T06:29:08.486Z,7.09
2022-09-28T06:31:35.013Z,7.06
2022-09-28T06:34:01.893Z,7.11
2022-09-28T06:36:29.270Z,7.12
2022-09-28T06:38:55.789Z,7.15
2022-09-28T06:41:23.007Z,7.19
2022-09-28T06:43:49.501Z,7.23
2022-09-28T06:46:34.450Z,7.29
2022-09-28T06:49:20.881Z,7.34
2022-09-28T06:52:12.981Z,7.41
2022-09-28T06:54:59.402Z,7.46
2022-09-28T06:57:42.970Z,7.52
2022-09-28T07:00:10.150Z,7.57
2022-09-28T07:02:37.353Z,7.64
2022-09-28T07:05:45.379Z,7.68
2022-09-28T07:08:30.157Z,7.82
2022-09-28T07:11:16.933Z,7.92
2022-09-28T07:13:51.269Z,7.97
2022-09-28T07:16:25.880Z,8.04
2022-09-28T07:18:54.564Z,8.12
2022-09-28T07:21:29.225Z,8.21
2022-09-28T07:23:58.096Z,8.33
2022-09-28T07:26:24.957Z,8.45
2022-09-28T07:28:57.248Z,8.55
2022-09-28T07:31:42.304Z,8.69
2022-09-28T07:34:20.525Z,8.80
2022-09-28T07:37:13.197Z,8.92
2022-09-28T07:39:39.905Z,8.99
2022-09-28T07:42:06.399Z,9.11
2022-09-28T07:44:32.911Z,9.17
2022-09-28T07:46:59.627Z,9.21
2022-09-28T07:49:44.969Z,9.37
2022-09-28T07:52:17.823Z,9.44
2022-09-28T07:55:07.526Z,9.54
2022-09-28T07:58:09.473Z,9.65
2022-09-28T08:00:45.906Z,9.73
2022-09-28T08:03:12.642Z,9.83
2022-09-28T08:05:39.263Z,9.91
2022-09-28T08:08:05.737Z,9.95
2022-09-28T08:10:33.075Z,10.04
2022-09-28T08:13:11.039Z,10.12
2022-09-28T08:15:54.534Z,10.25
2022-09-28T08:18:43.963Z,10.37
2022-09-28T08:21:10.483Z,10.44
2022-09-28T08:23:37.631Z,10.48
2022-09-28T08:26:05.342Z,10.58
2022-09-28T08:28:33.624Z,10.66
2022-09-28T08:31:04.286Z,10.74
2022-09-28T08:33:30.853Z,10.81
2022-09-28T08:36:15.873Z,10.92
2022-09-28T08:39:00.964Z,11.00
2022-09-28T08:41:54.831Z,11.07
2022-09-28T08:44:39.755Z,11.13
2022-09-28T08:47:25.604Z,11.13
2022-09-28T08:50:17.711Z,11.23
2022-09-28T08:53:27.022Z,11.43
2022-09-28T08:56:14.932Z,11.47
2022-09-28T08:58:48.417Z,11.71
2022-09-28T09:01:19.115Z,11.96
2022-09-28T09:03:48.259Z,12.10
2022-09-28T09:06:52.372Z,12.21
2022-09-28T09:09:33.089Z,12.18
2022-09-28T09:12:17.948Z,12.37
2022-09-28T09:15:41.659Z,12.41
2022-09-28T09:18:32.928Z,12.54
2022-09-28T09:21:40.124Z,12.65
2022-09-28T09:24:26.100Z,12.75
2022-09-28T09:27:04.770Z,12.80
2022-09-28T09:29:45.575Z,12.85
2022-09-28T09:32:36.573Z,12.90
2022-09-28T09:35:29.000Z,12.96
2022-09-28T09:38:31.442Z,12.95
2022-09-28T09:41:50.086Z,12.98
2022-09-28T09:45:20.717Z,12.90
2022-09-28T09:48:07.460Z,13.06
2022-09-28T09:50:40.550Z,12.96
2022-09-28T09:53:20.249Z,13.14
2022-09-28T09:55:50.928Z,13.27
2022-09-28T09:58:36.353Z,13.35
2022-09-28T10:01:26.959Z,13.61
2022-09-28T10:04:24.509Z,13.78
2022-09-28T10:06:58.644Z,13.99
2022-09-28T10:09:37.926Z,14.16
2022-09-28T10:12:34.516Z,14.33
2022-09-28T10:15:05.105Z,14.44
2022-09-28T10:17:39.223Z,14.59
2022-09-28T10:20:24.472Z,14.76
2022-09-28T10:22:58.921Z,14.95
2022-09-28T10:25:26.286Z,15.11
2022-09-28T10:27:52.788Z,15.31
2022-09-28T10:30:25.037Z,15.53
2022-09-28T10:32:53.772Z,15.65
2022-09-28T10:35:24.693Z,16.00
2022-09-28T10:37:59.132Z,16.30
2022-09-28T10:40:47.686Z,16.50
2022-09-28T10:43:25.484Z,16.62
2022-09-28T10:46:05.274Z,16.63
2022-09-28T10:48:50.485Z,16.57
2022-09-28T10:51:18.611Z,16.42
2022-09-28T10:54:01.756Z,16.31
2022-09-28T10:56:52.360Z,16.25
2022-09-28T10:59:38.867Z,16.20
2022-09-28T11:02:37.188Z,16.22
2022-09-28T11:05:21.218Z,16.25
2022-09-28T11:07:48.516Z,16.19
2022-09-28T11:10:23.102Z,16.14
2022-09-28T11:12:52.191Z,16.15
2022-09-28T11:15:24.509Z,16.13
2022-09-28T11:17:52.327Z,16.15
2022-09-28T11:20:28.151Z,16.10
2022-09-28T11:23:00.920Z,16.12
2022-09-28T11:25:32.798Z,16.16
2022-09-28T11:28:02.670Z,16.19
2022-09-28T11:30:29.217Z,16.29
2022-09-28T11:33:24.534Z,16.26
2022-09-28T11:36:21.766Z,16.11
2022-09-28T11:39:13.406Z,16.03
2022-09-28T11:42:02.262Z,16.03
2022-09-28T11:44:48.865Z,16.01
2022-09-28T11:47:19.114Z,16.00
2022-09-28T11:49:53.823Z,15.98
2022-09-28T11:52:24.336Z,15.87
2022-09-28T11:55:01.876Z,15.98
2022-09-28T11:57:35.105Z,15.96
2022-09-28T12:00:06.353Z,16.08
2022-09-28T12:02:46.691Z,16.13
2022-09-28T12:05:25.029Z,16.09
2022-09-28T12:08:09.448Z,16.24
2022-09-28T12:11:06.623Z,16.34
2022-09-28T12:14:21.371Z,16.39
2022-09-28T12:17:10.982Z,16.31
2022-09-28T12:20:33.092Z,16.41
2022-09-28T12:22:59.421Z,16.55
2022-09-28T12:25:28.682Z,16.61
2022-09-28T12:27:55.075Z,16.64
2022-09-28T12:30:23.479Z,16.54
2022-09-28T12:32:57.144Z,16.41
2022-09-28T12:35:29.340Z,16.39
2022-09-28T12:38:27.866Z,16.23
2022-09-28T12:40:54.325Z,16.11
2022-09-28T12:43:58.475Z,15.95
2022-09-28T12:46:49.092Z,15.74
2022-09-28T12:50:37.659Z,15.74
2022-09-28T12:53:08.326Z,15.72
2022-09-28T12:55:51.809Z,15.70
2022-09-28T12:58:31.204Z,15.70
2022-09-28T13:01:06.408Z,15.68
2022-09-28T13:03:35.562Z,15.68
2022-09-28T13:06:08.119Z,15.70
2022-09-28T13:08:53.481Z,15.69
2022-09-28T13:11:32.963Z,15.71
2022-09-28T13:14:05.291Z,15.80
2022-09-28T13:16:50.834Z,15.93
2022-09-28T13:19:20.162Z,16.06
2022-09-28T13:22:20.441Z,16.17
2022-09-28T13:24:48.675Z,16.17
2022-09-28T13:27:22.263Z,16.21
2022-09-28T13:29:50.556Z,16.44
2022-09-28T13:32:18.407Z,16.57
2022-09-28T13:34:49.048Z,16.57
2022-09-28T13:37:15.424Z,16.75
2022-09-28T13:39:44.849Z,16.79
2022-09-28T13:42:24.286Z,16.74
2022-09-28T13:45:15.304Z,16.87
2022-09-28T13:47:50.944Z,16.86
2022-09-28T13:50:28.803Z,16.82
2022-09-28T13:53:07.402Z,16.94
2022-09-28T13:55:48.712Z,17.01
2022-09-28T13:58:24.183Z,17.05
2022-09-28T14:01:00.330Z,17.08
2022-09-28T14:03:41.040Z,17.30
2022-09-28T14:06:29.189Z,17.54
2022-09-28T14:08:58.598Z,17.86
2022-09-28T14:11:42.248Z,18.00
2022-09-28T14:14:08.677Z,18.17
2022-09-28T14:16:36.442Z,18.22
2022-09-28T14:19:07.098Z,18.35
2022-09-28T14:22:17.465Z,18.50
2022-09-28T14:24:56.040Z,18.73
2022-09-28T14:27:30.588Z,18.91
2022-09-28T14:30:12.464Z,19.18
2022-09-28T14:32:40.913Z,19.25
2022-09-28T14:35:30.503Z,19.16
2022-09-28T14:38:13.466Z,18.92
2022-09-28T14:40:56.375Z,18.72
2022-09-28T14:43:57.171Z,18.50
2022-09-28T14:46:30.093Z,18.23
2022-09-28T14:49:00.639Z,18.00
2022-09-28T14:51:27.084Z,17.96
2022-09-28T14:54:15.153Z,17.85
2022-09-28T14:56:53.524Z,17.79
2022-09-28T14:59:22.837Z,17.66
2022-09-28T15:01:59.146Z,17.72
2022-09-28T15:04:28.888Z,17.74
2022-09-28T15:06:55.468Z,17.78
2022-09-28T15:09:29.686Z,17.76
2022-09-28T15:12:01.090Z,17.80
2022-09-28T15:14:28.911Z,17.75
2022-09-28T15:16:57.334Z,17.62
2022-09-28T15:19:32.817Z,17.61
2022-09-28T15:21:59.729Z,17.59
2022-09-28T15:24:28.349Z,17.57
2022-09-28T15:26:54.836Z,17.55
2022-09-28T15:29:21.677Z,17.51
2022-09-28T15:31:52.299Z,17.43
2022-09-28T15:34:32.768Z,17.32
2022-09-28T15:36:59.350Z,17.28
2022-09-28T15:39:32.078Z,17.21
2022-09-28T15:41:59.931Z,17.15
2022-09-28T15:44:36.863Z,17.06
2022-09-28T15:47:10.059Z,16.86
2022-09-28T15:49:38.899Z,16.90
2022-09-28T15:52:05.899Z,16.86
2022-09-28T15:54:42.116Z,16.79
2022-09-28T15:57:32.489Z,16.67
2022-09-28T16:00:00.087Z,16.72
2022-09-28T16:02:27.024Z,16.65
2022-09-28T16:04:59.278Z,16.53
2022-09-28T16:07:34.035Z,16.57
2022-09-28T16:10:12.799Z,16.51
2022-09-28T16:12:44.255Z,16.48
2022-09-28T16:15:16.014Z,16.42
2022-09-28T16:17:42.855Z,16.42
2022-09-28T16:20:21.008Z,16.25
2022-09-28T16:22:47.784Z,16.34
2022-09-28T16:25:22.706Z,16.29
2022-09-28T16:27:50.892Z,16.23
2022-09-28T16:30:25.468Z,16.03
2022-09-28T16:32:59.045Z,16.05
2022-09-28T16:35:26.871Z,15.96
2022-09-28T16:38:04.196Z,15.83
2022-09-28T16:40:32.514Z,15.74
2022-09-28T16:43:02.093Z,15.58
2022-09-28T16:45:28.972Z,15.48
2022-09-28T16:47:57.221Z,15.35
2022-09-28T16:50:24.575Z,15.24
2022-09-28T16:53:00.100Z,15.05
2022-09-28T16:55:42.866Z,14.97
2022-09-28T16:58:09.409Z,14.89
2022-09-28T17:00:35.872Z,14.78
2022-09-28T17:03:02.375Z,14.69
2022-09-28T17:05:28.925Z,14.62
2022-09-28T17:08:03.864Z,14.44
2022-09-28T17:11:02.529Z,14.34
2022-09-28T17:13:30.676Z,14.37
2022-09-28T17:15:58.287Z,14.34
2022-09-28T17:18:25.098Z,14.31
2022-09-28T17:20:53.061Z,14.27
2022-09-28T17:25:50.997Z,14.22
2022-09-28T17:28:19.936Z,14.19
2022-09-28T17:30:46.588Z,14.14
2022-09-28T17:33:13.247Z,14.11
2022-09-28T17:35:40.135Z,14.08
2022-09-28T17:38:06.830Z,14.05
2022-09-28T17:40:33.345Z,14.01
2022-09-28T17:42:59.874Z,14.01
2022-09-28T17:45:28.130Z,13.97
2022-09-28T17:47:55.814Z,13.91
2022-09-28T17:50:31.704Z,13.89
2022-09-28T17:52:58.739Z,13.88
2022-09-28T17:55:30.128Z,13.82
2022-09-28T17:57:57.289Z,13.76
2022-09-28T18:00:24.993Z,13.72
2022-09-28T18:02:51.678Z,13.65
2022-09-28T18:05:18.177Z,13.54
2022-09-28T18:07:47.621Z,13.49
2022-09-28T18:10:16.945Z,13.43
2022-09-28T18:12:43.466Z,13.35
2022-09-28T18:15:10.919Z,13.26
2022-09-28T18:17:38.957Z,13.18
2022-09-28T18:20:07.701Z,13.10
2022-09-28T18:22:34.235Z,13.04
2022-09-28T18:25:00.825Z,12.99
2022-09-28T18:27:31.519Z,12.94
2022-09-28T18:29:58.223Z,12.88
2022-09-28T18:32:24.772Z,12.84
2022-09-28T18:34:51.409Z,12.77
2022-09-28T18:37:18.288Z,12.69
2022-09-28T18:39:44.855Z,12.61
2022-09-28T18:42:12.354Z,12.52
2022-09-28T18:44:39.063Z,12.45
2022-09-28T18:47:05.576Z,12.38
2022-09-28T18:49:32.167Z,12.30
2022-09-28T18:51:58.599Z,12.24
2022-09-28T18:54:25.179Z,12.18
2022-09-28T18:56:55.276Z,12.01
2022-09-28T18:59:22.193Z,12.08
2022-09-28T19:01:48.884Z,12.05
2022-09-28T19:04:15.859Z,12.04
2022-09-28T19:06:42.790Z,12.02
2022-09-28T19:09:10.008Z,12.01
2022-09-28T19:11:36.634Z,12.02
2022-09-28T19:14:03.184Z,12.02
2022-09-28T19:16:31.063Z,12.04
2022-09-28T19:18:58.465Z,12.08
2022-09-28T19:21:25.675Z,12.10
2022-09-28T19:23:52.173Z,12.10
2022-09-28T19:26:21.648Z,12.12
2022-09-28T19:28:48.857Z,12.16
2022-09-28T19:31:16.064Z,12.18
2022-09-28T19:33:43.151Z,12.20
2022-09-28T19:36:12.548Z,12.19
2022-09-28T19:38:40.287Z,12.21
2022-09-28T19:41:18.209Z,12.22
2022-09-28T19:43:44.659Z,12.23
2022-09-28T19:46:11.185Z,12.22
2022-09-28T19:48:37.740Z,12.23
2022-09-28T19:51:06.105Z,12.11
2022-09-28T19:53:35.339Z,12.19
2022-09-28T19:56:02.846Z,12.21
2022-09-28T19:58:31.004Z,12.16
2022-09-28T20:00:57.449Z,12.17
2022-09-28T20:03:23.948Z,12.17
2022-09-28T20:05:56.855Z,12.16
2022-09-28T20:08:23.584Z,12.15
2022-09-28T20:10:54.092Z,12.17
2022-09-28T20:13:21.472Z,12.18
2022-09-28T20:15:48.256Z,12.19
2022-09-28T20:18:15.545Z,12.19
2022-09-28T20:20:42.261Z,12.18
2022-09-28T20:23:09.407Z,12.19
2022-09-28T20:25:35.899Z,12.20
2022-09-28T20:28:02.494Z,12.20
2022-09-28T20:30:28.914Z,12.21
2022-09-28T20:32:55.422Z,12.22
2022-09-28T20:35:32.164Z,12.21
2022-09-28T20:37:59.434Z,12.22
2022-09-28T20:40:25.917Z,12.23
2022-09-28T20:42:52.416Z,12.23
2022-09-28T20:45:18.860Z,12.22
2022-09-28T20:47:45.323Z,12.21
2022-09-28T20:50:11.775Z,12.17
2022-09-28T20:52:38.291Z,12.14
2022-09-28T20:55:05.098Z,12.11
2022-09-28T20:57:31.580Z,12.11
2022-09-28T20:59:58.016Z,12.10
2022-09-28T21:02:24.595Z,12.09
2022-09-28T21:04:51.194Z,12.06
2022-09-28T21:07:17.664Z,12.05
2022-09-28T21:09:44.090Z,12.00
2022-09-28T21:12:10.543Z,11.95
2022-09-28T21:14:36.971Z,11.95
2022-09-28T21:17:03.442Z,11.93
2022-09-28T21:19:29.820Z,11.90
2022-09-28T21:21:56.278Z,11.88
2022-09-28T21:24:22.682Z,11.85
2022-09-28T21:26:49.121Z,11.82
2022-09-28T21:29:15.590Z,11.78
2022-09-28T21:31:45.033Z,11.66
2022-09-28T21:34:19.899Z,11.56
2022-09-28T21:36:49.161Z,11.63
2022-09-28T21:39:15.619Z,11.60
2022-09-28T21:41:42.282Z,11.53
2022-09-28T21:44:09.017Z,11.51
2022-09-28T21:46:37.294Z,11.33
2022-09-28T21:49:05.608Z,11.41
2022-09-28T21:51:32.246Z,11.36
2022-09-28T21:53:58.833Z,11.28
2022-09-28T21:56:25.279Z,11.23
2022-09-28T21:58:51.749Z,11.10
2022-09-28T22:01:23.549Z,11.08
2022-09-28T22:03:52.764Z,11.04
2022-09-28T22:06:21.264Z,11.02
2022-09-28T22:08:48.820Z,10.97
2022-09-28T22:11:21.276Z,10.73
2022-09-28T22:13:56.908Z,10.75
2022-09-28T22:16:25.630Z,10.81
2022-09-28T22:18:52.534Z,10.76
2022-09-28T22:21:24.281Z,10.60
2022-09-28T22:23:51.016Z,10.65
2022-09-28T22:26:22.818Z,10.54
2022-09-28T22:28:52.340Z,10.48
2022-09-28T22:31:21.187Z,10.43
2022-09-28T22:33:48.101Z,10.49
2022-09-28T22:36:15.387Z,10.44
2022-09-28T22:38:45.795Z,10.41
2022-09-28T22:41:16.864Z,10.35
2022-09-28T22:43:43.699Z,10.28
2022-09-28T22:46:13.127Z,10.13
2022-09-28T22:48:40.192Z,10.21
2022-09-28T22:51:06.916Z,10.15
2022-09-28T22:53:34.846Z,10.14
2022-09-28T22:56:02.347Z,10.10
2022-09-28T22:58:28.808Z,10.07
2022-09-28T23:00:55.229Z,10.02
2022-09-28T23:03:21.699Z,9.96
2022-09-28T23:05:55.427Z,9.90
2022-09-28T23:08:23.404Z,9.87
2022-09-28T23:10:51.335Z,9.81
2022-09-28T23:13:18.535Z,9.79
2022-09-28T23:15:58.226Z,9.74
2022-09-28T23:18:27.581Z,9.71
2022-09-28T23:21:01.625Z,9.69
2022-09-28T23:23:28.880Z,9.64
2022-09-28T23:25:55.916Z,9.63
2022-09-28T23:28:24.936Z,9.60
2022-09-28T23:30:52.182Z,9.57
2022-09-28T23:33:20.867Z,9.51
2022-09-28T23:35:47.333Z,9.50
2022-09-28T23:38:15.744Z,9.37
2022-09-28T23:40:42.162Z,9.44
2022-09-28T23:43:08.734Z,9.40
2022-09-28T23:45:35.228Z,9.36
2022-09-28T23:48:02.229Z,9.35
2022-09-28T23:50:28.742Z,9.30
2022-09-28T23:52:55.445Z,9.28
2022-09-28T23:55:21.920Z,9.26
2022-09-28T23:57:48.329Z,9.23
